Greenock MRCC, United Kingdom

2:05 AM GMT on December 21, 2014 (GMT +0000)
Quay Marinas Limited Rhu Marina | Change Station
CLOSE
Current Station
Personal Weather Station
Location: Rhu, HELENSBURGH
Elevation: 16 ft
Nearby Weather Stations

Elev 16 ft 56.01 °N, 4.77 °W | Updated 8 seconds ago

Overcast
Overcast
45.6 °F
Feels Like 40 °F
N
11.5
Wind Variable Wind from SW
Gusts 11.5 mph

Today
High -- | Low -- °F
--% Chance of Precip.
Yesterday
High -- | Low -- °F
Precip. -- in
8:48 AM 3:45 PM
Waning Crescent, 1% visible
Pressure 30.09 in
Visibility 6.2 miles
Clouds Overcast 1700 ft
Windchill 40 °F
Dew Point 43 °F
Humidity 92%
Rainfall 0.00 in
Snow Depth Not available.
UV 0 out of 12
Pollen Not available.
Air Quality Not available.
Flu Activity Not available.
METAR EGPF 210150Z AUTO 22010KT 9999 OVC017 07/05 Q1019

More Conditions Fewer Conditions

Pressure 30.09 in
Visibility 6.2 miles
Clouds Overcast 1700 ft
Windchill 40 °F
Dew Point 43 °F
Humidity 92%
Rainfall 0.00 in
Snow Depth Not available.
UV 0 out of 12
Pollen Not available.
Air Quality Not available.
Flu Activity Not available.
METAR EGPF 210150Z AUTO 22010KT 9999 OVC017 07/05 Q1019

More Conditions Fewer Conditions

10-Day Weather Forecast

Almanac

Astronomy

Dec. 21, 2014 Rise Set
Actual Time
Civil Twilight
Nautical Twilight
Astronomical Twilight
Moon
Length of Visible Light
Length of Day
Tomorrow will be .
, % of the Moon is Illuminated

Today's Extremes

Country Highs Country Lows

Community

WunderPhotos

Upload Photos

1,779,346 photos uploaded!

WunderBlogs® & News

Nearby

Air Quality

  Air Quality AQ Index Pollutant
Not available.

Snow Depth

Station Depth Elevation

Earthquake Activity

City Distance Mag. Time & Date
Minimum magnitude displayed is 2.5.

Coastal Water Temperatures

Place Temperature

Nearby Weather Stations